Time;durP1;ratioP1;P1;durP2;ratioP2;P2;SDS_P1;SDS_P2;PMS_P1;PMS_P2;Temp;Humidity;BMP_temperature;BMP_pressure;BME280_temperature;BME280_humidity;BME280_pressure;Samples;Min_cycle;Max_cycle;Signal;HPM_P1;HPM_P2
2022/01/25 00:26:37;;;;;;;52.27;25.97;;;4.90;99.90;;;;;;5030207;28;20334;-57
2022/01/25 00:29:07;;;;;;;49.93;25.13;;;4.90;99.90;;;;;;5030716;28;20166;-56
2022/01/25 00:31:35;;;;;;;50.53;25.93;;;4.80;99.90;;;;;;5030351;28;20209;-56
2022/01/25 00:34:02;;;;;;;54.33;25.77;;;4.80;99.90;;;;;;5030493;28;20178;-57
2022/01/25 00:36:29;;;;;;;46.43;24.87;;;4.90;99.90;;;;;;5029506;28;20221;-57
2022/01/25 00:38:56;;;;;;;50.47;26.13;;;4.80;99.90;;;;;;5030078;28;20188;-58
2022/01/25 00:41:23;;;;;;;49.90;25.30;;;4.80;99.90;;;;;;5030230;28;20177;-58
2022/01/25 00:43:49;;;;;;;46.83;22.87;;;4.80;99.90;;;;;;5029914;28;20209;-58
2022/01/25 00:46:17;;;;;;;44.10;23.73;;;4.80;99.90;;;;;;5029806;28;20228;-58
2022/01/25 00:48:47;;;;;;;43.73;23.67;;;4.80;99.90;;;;;;5010647;28;20335;-58
2022/01/25 00:54:03;;;;;;;50.03;24.73;;;4.80;99.90;;;;;;5030074;28;20220;-58
2022/01/25 00:56:32;;;;;;;51.33;26.20;;;4.80;99.90;;;;;;5029971;28;20308;-58
2022/01/25 00:59:00;;;;;;;45.57;23.93;;;4.80;99.90;;;;;;5029920;28;20174;-57
2022/01/25 01:01:27;;;;;;;51.40;25.83;;;4.90;99.90;;;;;;5012127;28;20174;-57
2022/01/25 01:03:53;;;;;;;46.67;24.23;;;4.70;99.90;;;;;;5028545;28;20603;-57
2022/01/25 01:06:20;;;;;;;50.53;26.20;;;4.60;99.90;;;;;;5029698;28;20174;-56
2022/01/25 01:08:46;;;;;;;53.00;26.73;;;4.60;99.90;;;;;;5030021;28;20311;-57
2022/01/25 01:11:19;;;;;;;49.00;25.17;;;4.70;99.90;;;;;;5029658;28;20748;-57
2022/01/25 01:38:22;;;;;;;48.97;24.37;;;4.80;99.90;;;;;;5033000;28;20174;-56
2022/01/25 01:43:31;;;;;;;50.20;25.60;;;4.70;99.90;;;;;;5032901;28;20189;-56
2022/01/25 01:51:17;;;;;;;49.47;25.23;;;4.70;99.90;;;;;;5032580;28;20178;-56
2022/01/25 01:53:43;;;;;;;55.30;26.03;;;4.70;99.90;;;;;;5032990;28;20205;-56
2022/01/25 01:56:09;;;;;;;49.67;24.13;;;4.70;99.90;;;;;;5027783;28;20205;-56
2022/01/25 01:58:36;;;;;;;45.67;24.87;;;4.60;99.90;;;;;;5023699;28;20185;-56
2022/01/25 02:01:04;;;;;;;50.93;26.40;;;4.70;99.90;;;;;;5033026;28;20177;-56
2022/01/25 02:03:30;;;;;;;51.50;26.00;;;4.70;99.90;;;;;;5032460;28;20174;-56
2022/01/25 02:05:56;;;;;;;53.40;26.87;;;4.70;99.90;;;;;;5032577;28;20174;-57
2022/01/25 02:08:22;;;;;;;51.83;26.73;;;4.70;99.90;;;;;;5032370;28;20310;-58
2022/01/25 02:10:47;;;;;;;51.43;26.67;;;4.70;99.90;;;;;;5014572;28;20216;-57
2022/01/25 02:13:14;;;;;;;53.07;27.43;;;4.70;99.90;;;;;;5032225;28;20269;-56
2022/01/25 02:15:44;;;;;;;50.93;25.47;;;4.70;99.90;;;;;;5016058;28;20282;-56
2022/01/25 02:23:44;;;;;;;53.33;26.30;;;4.70;99.90;;;;;;5013145;28;20346;-57
2022/01/25 02:26:11;;;;;;;52.90;26.97;;;4.70;99.90;;;;;;4999236;28;20538;-57
2022/01/25 02:28:40;;;;;;;50.27;25.83;;;4.70;99.90;;;;;;5030588;28;20269;-56
2022/01/25 02:31:07;;;;;;;47.73;26.00;;;4.70;99.90;;;;;;5032218;28;20170;-56
2022/01/25 02:33:33;;;;;;;51.50;25.43;;;4.80;99.90;;;;;;5031767;28;20561;-57
2022/01/25 02:36:01;;;;;;;49.40;25.17;;;4.80;99.90;;;;;;5031090;28;20221;-57
2022/01/25 02:38:30;;;;;;;51.03;26.83;;;4.80;99.90;;;;;;5031059;28;20648;-57
2022/01/25 02:40:57;;;;;;;60.23;28.00;;;4.80;99.90;;;;;;5031389;28;20710;-57
2022/01/25 02:43:24;;;;;;;53.27;27.27;;;4.80;99.90;;;;;;5032015;28;20180;-57
2022/01/25 02:46:07;;;;;;;48.30;25.53;;;4.80;99.90;;;;;;5031496;28;20265;-57
2022/01/25 02:48:59;;;;;;;49.40;25.50;;;4.80;99.90;;;;;;5031606;28;20243;-57
2022/01/25 02:51:29;;;;;;;50.70;25.20;;;4.80;99.90;;;;;;5007053;28;20182;-57
2022/01/25 02:53:55;;;;;;;52.70;26.73;;;4.80;99.90;;;;;;5031482;28;20538;-57
2022/01/25 02:56:23;;;;;;;55.00;26.33;;;4.70;99.90;;;;;;5031588;28;20220;-57
2022/01/25 02:58:50;;;;;;;53.50;25.80;;;4.70;99.90;;;;;;5031653;28;20178;-57
2022/01/25 03:01:16;;;;;;;53.30;27.17;;;4.70;99.90;;;;;;5031292;28;20188;-57
2022/01/25 03:03:42;;;;;;;50.50;26.53;;;4.70;99.90;;;;;;5031825;28;20187;-58
2022/01/25 03:06:08;;;;;;;59.13;27.00;;;4.60;99.90;;;;;;5030841;28;20170;-57
2022/01/25 03:08:34;;;;;;;51.70;26.07;;;4.70;99.90;;;;;;5031388;28;20177;-57
2022/01/25 03:11:01;;;;;;;56.47;27.13;;;4.60;99.90;;;;;;5031268;28;20205;-57
2022/01/25 03:13:35;;;;;;;51.37;25.93;;;4.60;99.90;;;;;;5031051;28;20224;-57
2022/01/25 03:16:05;;;;;;;55.60;27.53;;;4.70;99.90;;;;;;5027923;28;20212;-57
2022/01/25 03:21:16;;;;;;;57.57;28.30;;;4.60;99.90;;;;;;5030866;28;20174;-57
2022/01/25 03:23:42;;;;;;;54.83;26.97;;;4.60;99.90;;;;;;5031393;28;20186;-57
2022/01/25 03:26:08;;;;;;;62.90;29.53;;;4.60;99.90;;;;;;5031209;28;20177;-57
2022/01/25 03:28:34;;;;;;;58.97;28.43;;;4.70;99.90;;;;;;5031027;28;20231;-56
2022/01/25 03:31:00;;;;;;;56.83;29.17;;;4.70;99.90;;;;;;5013115;28;20177;-56
2022/01/25 03:33:26;;;;;;;56.20;28.27;;;4.70;99.90;;;;;;5030400;28;20178;-57
2022/01/25 03:35:52;;;;;;;53.93;28.47;;;4.70;99.90;;;;;;5030549;28;20562;-58
2022/01/25 03:38:18;;;;;;;52.37;27.10;;;4.70;99.90;;;;;;5029637;28;20729;-58
2022/01/25 03:40:45;;;;;;;56.93;28.13;;;4.70;99.90;;;;;;5030738;28;20260;-58
2022/01/25 03:43:14;;;;;;;54.13;27.83;;;4.60;99.90;;;;;;5030531;28;20182;-58
2022/01/25 03:45:43;;;;;;;52.73;27.13;;;4.70;99.90;;;;;;5030297;28;20640;-58
2022/01/25 03:50:42;;;;;;;53.23;26.97;;;4.60;99.90;;;;;;5028034;28;20186;-58
2022/01/25 03:53:09;;;;;;;54.23;27.20;;;4.60;99.90;;;;;;5029698;28;20182;-58
2022/01/25 03:55:35;;;;;;;57.00;27.97;;;4.60;99.90;;;;;;5030618;28;20244;-58
2022/01/25 03:58:02;;;;;;;62.77;28.63;;;4.60;99.90;;;;;;5030353;28;20268;-58
2022/01/25 04:00:27;;;;;;;59.60;29.50;;;4.60;99.90;;;;;;5030200;28;20174;-58
2022/01/25 04:03:00;;;;;;;60.23;29.50;;;4.70;99.90;;;;;;5029956;28;20184;-58
2022/01/25 04:05:36;;;;;;;55.23;28.53;;;4.60;99.90;;;;;;5030211;28;20197;-58
2022/01/25 04:08:03;;;;;;;56.53;27.67;;;4.50;99.90;;;;;;5030512;28;20185;-57
2022/01/25 04:10:29;;;;;;;54.83;27.87;;;4.50;99.90;;;;;;5030290;28;20170;-57
2022/01/25 04:12:55;;;;;;;64.07;29.67;;;4.40;99.90;;;;;;5027417;28;20536;-57
2022/01/25 04:15:21;;;;;;;64.27;30.77;;;4.40;99.90;;;;;;5028800;28;20268;-57
2022/01/25 04:17:53;;;;;;;62.07;31.00;;;4.50;99.90;;;;;;5030380;28;20198;-57
2022/01/25 04:20:25;;;;;;;66.03;30.90;;;4.50;99.90;;;;;;5029855;28;20660;-57
2022/01/25 04:25:35;;;;;;;67.80;31.17;;;4.40;99.90;;;;;;5030517;28;20256;-57
2022/01/25 04:28:01;;;;;;;67.20;30.23;;;4.40;99.90;;;;;;5030295;28;20648;-57
2022/01/25 04:30:27;;;;;;;60.27;29.73;;;4.50;99.90;;;;;;5012381;28;20241;-57
2022/01/25 04:33:05;;;;;;;61.73;31.03;;;4.50;99.90;;;;;;5029373;28;20227;-59
2022/01/25 04:49:21;;;;;;;64.83;30.07;;;4.40;99.90;;;;;;5030200;28;20702;-58
2022/01/25 04:51:52;;;;;;;68.10;31.10;;;4.40;99.90;;;;;;5029856;28;20186;-58
2022/01/25 04:59:31;;;;;;;67.93;29.87;;;4.30;99.90;;;;;;5030718;28;20201;-58
2022/01/25 05:02:04;;;;;;;73.03;31.63;;;4.30;99.90;;;;;;5033127;28;20177;-58
2022/01/25 05:04:36;;;;;;;68.03;30.23;;;4.30;99.90;;;;;;5029646;28;20192;-58
2022/01/25 05:07:17;;;;;;;70.60;29.73;;;4.30;99.90;;;;;;5027378;28;20178;-58
2022/01/25 05:09:45;;;;;;;63.10;29.83;;;4.30;99.90;;;;;;5033240;28;20855;-58
2022/01/25 05:12:12;;;;;;;69.00;30.50;;;4.30;99.90;;;;;;5033666;28;20182;-58
2022/01/25 05:14:54;;;;;;;69.57;29.80;;;4.30;99.90;;;;;;5033445;28;20711;-57
2022/01/25 05:17:29;;;;;;;64.90;29.27;;;4.30;99.90;;;;;;5033212;28;20220;-57
2022/01/25 05:22:29;;;;;;;69.03;30.70;;;4.30;99.90;;;;;;5033077;28;20189;-57
2022/01/25 05:24:56;;;;;;;63.03;29.57;;;4.40;99.90;;;;;;5033395;28;20257;-57
2022/01/25 05:27:29;;;;;;;67.27;30.97;;;4.40;99.90;;;;;;5033415;28;20182;-58
2022/01/25 05:29:55;;;;;;;64.33;29.67;;;4.40;99.90;;;;;;5032890;28;20243;-57
2022/01/25 05:32:20;;;;;;;61.50;28.93;;;4.30;99.90;;;;;;5011270;28;20194;-58
2022/01/25 05:34:46;;;;;;;68.03;29.83;;;4.30;99.90;;;;;;5029875;28;20174;-57
2022/01/25 05:37:12;;;;;;;63.73;29.70;;;4.40;99.90;;;;;;5014846;28;20749;-57
2022/01/25 05:39:38;;;;;;;61.57;29.30;;;4.40;99.90;;;;;;5021761;28;20185;-58
2022/01/25 05:42:44;;;;;;;56.73;29.23;;;4.40;99.90;;;;;;5032377;28;20228;-58
2022/01/25 05:45:00;;;;;;;64.40;29.70;;;4.40;99.90;;;;;;5030342;28;20190;-57
2022/01/25 05:47:31;;;;;;;58.40;27.60;;;4.40;99.90;;;;;;5032335;28;20193;-57
2022/01/25 05:49:59;;;;;;;63.30;30.53;;;4.40;99.90;;;;;;5025583;28;20326;-57
2022/01/25 05:52:26;;;;;;;60.63;28.83;;;4.40;99.90;;;;;;5032426;28;20173;-58
2022/01/25 05:54:52;;;;;;;64.53;29.90;;;4.40;99.90;;;;;;5032673;28;20663;-58
2022/01/25 05:57:18;;;;;;;66.03;31.23;;;4.40;99.90;;;;;;5032517;28;20221;-58
2022/01/25 05:59:44;;;;;;;60.27;29.10;;;4.40;99.90;;;;;;5014475;28;20181;-58
2022/01/25 06:02:10;;;;;;;58.30;29.33;;;4.30;99.90;;;;;;5032109;28;20184;-57
2022/01/25 06:04:35;;;;;;;57.80;27.77;;;4.30;99.90;;;;;;5032586;28;20174;-57
2022/01/25 06:07:01;;;;;;;65.90;29.63;;;4.30;99.90;;;;;;5032312;28;20514;-56
2022/01/25 06:09:27;;;;;;;61.70;29.33;;;4.30;99.90;;;;;;5032493;28;20208;-57
2022/01/25 06:11:54;;;;;;;63.57;29.57;;;4.30;99.90;;;;;;5030420;28;20189;-57
2022/01/25 06:14:20;;;;;;;59.03;28.43;;;4.30;99.90;;;;;;5032312;28;20226;-56
2022/01/25 06:16:46;;;;;;;58.83;28.10;;;4.20;99.90;;;;;;5032298;28;20205;-56
2022/01/25 06:19:12;;;;;;;60.77;29.33;;;4.20;99.90;;;;;;5014759;28;20261;-57
2022/01/25 06:21:38;;;;;;;63.37;29.93;;;4.20;99.90;;;;;;5031514;28;20521;-57
2022/01/25 06:24:04;;;;;;;61.47;28.13;;;4.20;99.90;;;;;;5031972;28;20249;-57
2022/01/25 06:26:30;;;;;;;60.50;28.43;;;4.30;99.90;;;;;;5032067;28;20181;-56
2022/01/25 06:28:56;;;;;;;64.37;30.17;;;4.20;99.90;;;;;;5032195;28;20174;-56
2022/01/25 06:31:22;;;;;;;70.27;29.87;;;4.20;99.90;;;;;;5031192;28;20688;-56
2022/01/25 06:33:48;;;;;;;61.33;29.10;;;4.20;99.90;;;;;;5031988;28;20181;-56
2022/01/25 06:36:15;;;;;;;60.33;29.53;;;4.20;99.90;;;;;;5031416;28;20205;-56
2022/01/25 06:38:41;;;;;;;62.90;29.53;;;4.10;99.90;;;;;;5031601;28;20210;-56
2022/01/25 06:41:10;;;;;;;68.00;30.13;;;4.20;99.90;;;;;;5031250;28;20216;-56
2022/01/25 06:43:37;;;;;;;70.23;31.43;;;4.20;99.90;;;;;;5030883;28;20185;-56
2022/01/25 06:46:03;;;;;;;64.10;29.77;;;4.20;99.90;;;;;;5031367;28;20185;-56
2022/01/25 06:48:31;;;;;;;66.93;30.60;;;4.20;99.90;;;;;;5031515;28;20663;-56
2022/01/25 06:50:57;;;;;;;62.17;30.23;;;4.30;99.90;;;;;;5031599;28;20189;-57
2022/01/25 06:53:23;;;;;;;68.83;31.03;;;4.30;99.90;;;;;;5031519;28;20332;-56
2022/01/25 06:55:49;;;;;;;65.73;30.73;;;4.30;99.90;;;;;;5031319;28;20300;-56
2022/01/25 06:58:15;;;;;;;64.20;28.83;;;4.30;99.90;;;;;;5031160;28;20265;-56
2022/01/25 07:00:41;;;;;;;66.13;29.93;;;4.40;99.90;;;;;;5031368;28;20193;-56
2022/01/25 07:03:07;;;;;;;63.17;29.17;;;4.40;99.90;;;;;;5030576;28;20182;-56
2022/01/25 07:05:33;;;;;;;70.43;29.80;;;4.40;99.90;;;;;;5025209;28;20304;-56
2022/01/25 07:07:59;;;;;;;62.37;28.47;;;4.40;99.90;;;;;;5030753;28;20182;-56
2022/01/25 07:10:25;;;;;;;65.70;30.13;;;4.40;99.90;;;;;;5026260;28;20192;-56
2022/01/25 07:12:51;;;;;;;71.87;30.73;;;4.40;99.90;;;;;;5030756;28;20181;-56
2022/01/25 07:15:17;;;;;;;65.20;29.67;;;4.30;99.90;;;;;;5030782;28;20221;-55
2022/01/25 07:17:44;;;;;;;64.73;30.17;;;4.30;99.90;;;;;;5030617;28;20193;-56
2022/01/25 07:20:10;;;;;;;63.13;29.40;;;4.30;99.90;;;;;;5031183;28;20181;-56
2022/01/25 07:22:37;;;;;;;64.30;30.23;;;4.30;99.90;;;;;;5030669;28;20185;-56
2022/01/25 07:25:08;;;;;;;65.47;30.10;;;4.30;99.90;;;;;;5030186;28;20185;-55
2022/01/25 07:27:34;;;;;;;63.70;30.00;;;4.30;99.90;;;;;;5030613;28;20189;-56
2022/01/25 07:30:00;;;;;;;62.70;28.40;;;4.30;99.90;;;;;;5030555;28;20170;-56
2022/01/25 07:32:25;;;;;;;64.53;29.80;;;4.30;99.90;;;;;;5031247;28;20162;-56
2022/01/25 07:34:51;;;;;;;65.43;27.30;;;4.30;99.90;;;;;;5030885;28;20182;-56
2022/01/25 07:37:17;;;;;;;63.30;29.03;;;4.30;99.90;;;;;;5030897;28;20209;-56
2022/01/25 07:39:44;;;;;;;64.87;28.97;;;4.30;99.90;;;;;;5030799;28;20648;-56
2022/01/25 07:42:11;;;;;;;67.57;29.63;;;4.30;99.90;;;;;;5030810;28;20174;-56
2022/01/25 07:44:38;;;;;;;67.30;28.77;;;4.30;99.90;;;;;;5030274;28;20693;-56
2022/01/25 07:47:05;;;;;;;64.00;28.40;;;4.30;99.90;;;;;;5029241;28;20493;-57
2022/01/25 07:49:32;;;;;;;71.90;29.77;;;4.20;99.90;;;;;;5023967;28;20171;-57
2022/01/25 07:51:58;;;;;;;65.40;29.87;;;4.20;99.90;;;;;;5011102;28;20313;-57
2022/01/25 07:54:25;;;;;;;63.67;29.70;;;4.20;99.90;;;;;;5023002;28;20166;-57
2022/01/25 07:56:52;;;;;;;56.37;26.33;;;4.20;99.90;;;;;;5030680;28;20214;-58
2022/01/25 07:59:18;;;;;;;67.03;29.37;;;3.70;99.90;;;;;;5030704;28;20249;-57
2022/01/25 08:01:44;;;;;;;70.60;29.50;;;4.20;99.90;;;;;;5030435;28;20180;-58
2022/01/25 08:04:11;;;;;;;71.13;31.60;;;4.30;99.90;;;;;;5024681;28;20178;-57
2022/01/25 08:06:37;;;;;;;63.93;29.33;;;4.30;99.90;;;;;;5029098;28;20181;-58
2022/01/25 08:09:07;;;;;;;70.17;31.03;;;4.20;99.90;;;;;;5030669;28;20180;-57
2022/01/25 08:11:33;;;;;;;71.33;29.13;;;4.10;99.90;;;;;;5030409;28;20174;-58
2022/01/25 08:14:11;;;;;;;75.60;31.60;;;4.20;99.90;;;;;;5030626;28;20300;-58
2022/01/25 08:16:38;;;;;;;63.90;28.73;;;4.20;99.90;;;;;;5030359;28;20216;-56
2022/01/25 08:19:04;;;;;;;71.73;30.43;;;4.20;99.90;;;;;;5030552;28;20170;-57
2022/01/25 08:21:30;;;;;;;67.73;29.63;;;4.20;99.90;;;;;;5030432;28;20194;-57
2022/01/25 08:23:55;;;;;;;68.80;29.40;;;4.20;99.90;;;;;;5029304;28;20209;-61
2022/01/25 08:26:21;;;;;;;66.43;29.10;;;4.10;99.90;;;;;;5030496;28;20180;-59
2022/01/25 08:28:47;;;;;;;66.40;29.37;;;4.20;99.90;;;;;;5030348;28;20181;-58
2022/01/25 08:31:13;;;;;;;68.93;28.53;;;4.20;99.90;;;;;;5029539;28;20537;-58
2022/01/25 08:33:39;;;;;;;65.83;29.13;;;4.20;99.90;;;;;;5030412;28;20201;-58
2022/01/25 08:36:05;;;;;;;63.73;29.20;;;4.20;99.90;;;;;;5033327;28;20221;-58
2022/01/25 08:38:31;;;;;;;71.20;29.00;;;4.10;99.90;;;;;;5034492;28;20185;-57
2022/01/25 08:40:57;;;;;;;61.03;28.20;;;4.10;99.90;;;;;;5032613;28;20185;-58
2022/01/25 08:43:24;;;;;;;72.27;29.77;;;4.10;99.90;;;;;;5030688;28;20235;-58
2022/01/25 08:45:50;;;;;;;61.27;29.83;;;4.10;99.90;;;;;;5033785;28;20182;-58
2022/01/25 08:48:16;;;;;;;64.63;29.13;;;4.10;99.90;;;;;;5034060;28;20316;-58
2022/01/25 08:50:42;;;;;;;69.93;30.17;;;4.20;99.90;;;;;;5034005;28;20170;-58
2022/01/25 08:53:09;;;;;;;72.30;31.60;;;4.20;99.90;;;;;;5033992;28;20502;-58
2022/01/25 08:55:35;;;;;;;71.60;31.00;;;4.20;99.90;;;;;;5033477;28;20177;-58
2022/01/25 08:58:01;;;;;;;71.50;30.13;;;4.20;99.90;;;;;;5034074;28;20698;-58
2022/01/25 09:00:27;;;;;;;72.27;30.10;;;4.30;99.90;;;;;;5033869;28;20173;-58
2022/01/25 09:02:52;;;;;;;65.43;29.20;;;4.30;99.90;;;;;;5013025;28;20185;-58
2022/01/25 09:05:19;;;;;;;69.93;29.23;;;4.20;99.90;;;;;;5030754;28;20489;-58
2022/01/25 09:07:45;;;;;;;66.90;28.67;;;4.20;99.90;;;;;;5033676;28;20176;-59
2022/01/25 09:10:11;;;;;;;72.83;29.23;;;4.10;99.90;;;;;;5033857;28;20181;-58
2022/01/25 09:12:37;;;;;;;67.37;28.40;;;4.10;99.90;;;;;;5033904;28;20170;-57
2022/01/25 09:15:04;;;;;;;71.27;28.87;;;4.10;99.90;;;;;;5032747;28;20222;-59
2022/01/25 09:17:30;;;;;;;74.10;30.67;;;4.10;99.90;;;;;;5033773;28;20271;-59
2022/01/25 09:19:55;;;;;;;67.10;28.80;;;4.20;99.90;;;;;;5033616;28;20280;-60
2022/01/25 09:22:21;;;;;;;66.80;28.93;;;4.20;99.90;;;;;;5033292;28;20178;-59
2022/01/25 09:24:49;;;;;;;66.77;28.60;;;4.20;99.90;;;;;;5033363;28;20332;-58
2022/01/25 09:27:15;;;;;;;74.00;29.53;;;4.30;99.90;;;;;;5033561;28;20198;-59
2022/01/25 09:29:40;;;;;;;75.50;29.83;;;4.30;99.90;;;;;;5033710;28;20251;-59
2022/01/25 09:32:07;;;;;;;82.93;31.57;;;4.30;99.90;;;;;;5033512;28;20177;-60
2022/01/25 09:34:32;;;;;;;83.40;30.63;;;4.40;99.90;;;;;;5032924;28;20698;-60
2022/01/25 09:36:59;;;;;;;74.97;29.67;;;4.30;99.90;;;;;;5032776;28;20292;-60
2022/01/25 09:39:25;;;;;;;73.90;29.57;;;4.40;99.90;;;;;;5033229;28;20174;-61
2022/01/25 09:41:52;;;;;;;68.90;29.20;;;4.30;99.90;;;;;;5014558;28;20367;-58
2022/01/25 09:44:19;;;;;;;83.17;30.70;;;4.30;99.90;;;;;;5029479;28;20652;-60
2022/01/25 09:46:45;;;;;;;70.33;30.60;;;4.30;99.90;;;;;;5032794;28;20185;-58
2022/01/25 09:49:11;;;;;;;72.63;31.60;;;4.40;99.90;;;;;;5032367;28;20174;-59
2022/01/25 09:51:41;;;;;;;71.93;29.83;;;4.50;99.90;;;;;;5026364;28;20174;-59
2022/01/25 09:54:07;;;;;;;69.97;29.20;;;4.50;99.90;;;;;;5031147;28;20178;-59
2022/01/25 09:56:33;;;;;;;64.33;29.03;;;4.50;99.90;;;;;;5016886;28;20236;-58
2022/01/25 09:59:00;;;;;;;60.73;27.60;;;4.40;99.90;;;;;;5032495;28;20170;-58
2022/01/25 10:01:28;;;;;;;70.13;28.77;;;4.40;99.90;;;;;;5028756;28;20182;-58
2022/01/25 10:03:54;;;;;;;71.13;29.00;;;4.40;99.90;;;;;;5032776;28;20666;-58
2022/01/25 10:06:22;;;;;;;74.43;29.13;;;4.40;99.90;;;;;;5032132;28;20265;-58
2022/01/25 10:08:52;;;;;;;71.07;30.33;;;4.50;99.90;;;;;;5032027;28;20178;-59
2022/01/25 10:11:22;;;;;;;71.57;29.67;;;4.50;99.90;;;;;;5023104;28;20181;-60
2022/01/25 10:13:52;;;;;;;68.30;28.73;;;4.50;99.90;;;;;;5020039;28;20218;-61
2022/01/25 10:16:21;;;;;;;64.40;28.33;;;4.50;99.90;;;;;;5014924;28;20206;-59
2022/01/25 10:19:00;;;;;;;65.53;28.97;;;4.50;99.90;;;;;;5030765;28;20219;-59
2022/01/25 10:21:28;;;;;;;75.67;29.57;;;4.50;99.90;;;;;;5031718;28;20208;-59
2022/01/25 10:24:10;;;;;;;71.07;30.30;;;4.40;99.90;;;;;;5031593;28;20227;-59
2022/01/25 10:26:58;;;;;;;68.50;29.47;;;4.40;99.90;;;;;;5029993;28;20177;-59
2022/01/25 10:29:26;;;;;;;65.57;28.30;;;4.50;99.90;;;;;;5015086;28;20178;-59
2022/01/25 10:32:15;;;;;;;64.60;27.00;;;4.60;99.90;;;;;;5028794;28;20209;-60
2022/01/25 10:34:46;;;;;;;67.30;29.50;;;4.50;99.90;;;;;;4993511;28;20644;-60
2022/01/25 10:37:20;;;;;;;74.20;29.53;;;4.40;99.90;;;;;;5026230;28;20210;-60
2022/01/25 10:39:48;;;;;;;64.13;29.10;;;4.50;99.90;;;;;;5031721;28;20269;-60
2022/01/25 10:42:18;;;;;;;67.17;28.87;;;4.50;99.90;;;;;;5032035;28;20178;-60
2022/01/25 10:44:52;;;;;;;70.10;28.70;;;4.40;99.90;;;;;;5032363;28;20174;-59
2022/01/25 10:47:21;;;;;;;71.33;28.87;;;4.40;99.90;;;;;;5025647;28;20365;-59
2022/01/25 10:49:49;;;;;;;69.37;27.80;;;4.40;99.90;;;;;;5029900;28;20202;-59
2022/01/25 10:52:26;;;;;;;74.47;29.53;;;4.50;99.90;;;;;;5024853;28;20186;-59
2022/01/25 10:54:52;;;;;;;72.30;28.67;;;4.50;99.90;;;;;;5031566;28;20185;-59
2022/01/25 10:57:21;;;;;;;73.80;29.10;;;4.50;99.90;;;;;;5031281;28;20211;-59
2022/01/25 10:59:59;;;;;;;68.63;28.30;;;4.50;99.90;;;;;;5013548;28;20536;-59
2022/01/25 11:02:25;;;;;;;69.33;26.90;;;4.50;99.90;;;;;;5030891;28;20250;-59
2022/01/25 11:04:52;;;;;;;73.43;29.23;;;4.50;99.90;;;;;;5030827;28;20170;-59
2022/01/25 11:07:18;;;;;;;67.47;28.70;;;4.50;99.90;;;;;;5024347;28;20178;-59
2022/01/25 11:09:47;;;;;;;79.80;28.03;;;4.60;99.90;;;;;;5029464;28;20189;-59
2022/01/25 11:12:17;;;;;;;75.23;28.90;;;4.60;99.90;;;;;;5031379;28;20174;-59
2022/01/25 11:14:50;;;;;;;72.70;28.03;;;4.60;99.90;;;;;;5031203;28;20229;-59
2022/01/25 11:17:27;;;;;;;75.17;28.17;;;4.60;99.90;;;;;;5031352;28;20351;-59
2022/01/25 11:19:55;;;;;;;75.00;29.43;;;4.70;99.90;;;;;;5029586;28;20227;-61
2022/01/25 11:22:21;;;;;;;67.57;27.10;;;4.70;99.90;;;;;;5027684;28;20692;-59
2022/01/25 11:25:22;;;;;;;74.27;27.53;;;4.70;99.90;;;;;;5031251;28;20184;-59
2022/01/25 11:27:49;;;;;;;68.87;28.37;;;4.80;99.90;;;;;;5006272;28;20182;-59
2022/01/25 11:30:18;;;;;;;75.03;27.97;;;4.80;99.90;;;;;;5031192;28;20624;-59
2022/01/25 11:32:50;;;;;;;76.30;27.60;;;4.80;99.90;;;;;;5031357;28;20170;-58
2022/01/25 11:35:20;;;;;;;69.57;27.67;;;4.70;99.90;;;;;;5017937;28;20638;-58
2022/01/25 11:37:48;;;;;;;67.47;27.43;;;4.60;99.90;;;;;;5033691;28;20220;-59
2022/01/25 11:40:33;;;;;;;77.07;27.83;;;4.70;99.90;;;;;;5051056;28;20180;-59
2022/01/25 11:43:06;;;;;;;68.27;26.37;;;4.60;99.90;;;;;;5030590;28;20197;-60
2022/01/25 11:45:35;;;;;;;78.17;26.40;;;4.60;99.90;;;;;;5030310;28;20260;-59
2022/01/25 11:48:02;;;;;;;67.60;27.23;;;4.60;99.90;;;;;;5030682;28;20209;-59
2022/01/25 11:50:31;;;;;;;64.37;25.97;;;4.60;99.90;;;;;;5031229;28;20167;-60
2022/01/25 11:53:05;;;;;;;66.60;26.73;;;4.70;99.90;;;;;;5030639;28;20176;-59
2022/01/25 11:55:35;;;;;;;65.53;25.50;;;4.60;99.90;;;;;;5030093;28;20186;-59
2022/01/25 11:58:26;;;;;;;72.87;27.63;;;4.70;99.90;;;;;;5027200;28;20668;-59
2022/01/25 12:01:01;;;;;;;65.93;26.53;;;4.50;99.90;;;;;;5012314;28;20189;-59
2022/01/25 12:03:40;;;;;;;63.43;26.27;;;4.60;99.90;;;;;;5030064;28;20260;-57
2022/01/25 12:06:13;;;;;;;69.90;27.47;;;4.60;99.90;;;;;;5019752;28;20204;-58
2022/01/25 12:09:06;;;;;;;61.97;25.77;;;4.60;99.90;;;;;;5029764;28;20170;-58
2022/01/25 12:11:48;;;;;;;64.80;26.93;;;4.50;99.90;;;;;;5030667;28;20240;-58
2022/01/25 12:14:14;;;;;;;65.73;26.33;;;4.60;99.90;;;;;;5012709;28;20230;-59
2022/01/25 12:16:47;;;;;;;62.43;26.47;;;4.60;99.90;;;;;;5029647;28;20815;-58
2022/01/25 12:19:19;;;;;;;61.07;26.63;;;4.70;99.90;;;;;;5030510;28;20178;-57
2022/01/25 12:21:49;;;;;;;65.97;27.03;;;4.60;99.90;;;;;;5030518;28;20176;-57
2022/01/25 12:24:21;;;;;;;69.07;27.17;;;4.50;99.90;;;;;;5030520;28;20253;-58
2022/01/25 12:27:02;;;;;;;70.10;27.37;;;4.50;99.90;;;;;;5029682;28;20186;-58
2022/01/25 12:29:41;;;;;;;72.33;26.20;;;4.50;99.90;;;;;;5030590;28;20653;-58
2022/01/25 12:32:27;;;;;;;68.47;27.07;;;4.70;99.90;;;;;;5030527;28;20253;-59
2022/01/25 12:35:31;;;;;;;67.33;26.20;;;4.80;99.90;;;;;;5008944;28;20190;-58
2022/01/25 12:37:59;;;;;;;61.87;24.90;;;4.80;99.90;;;;;;5020761;28;20464;-58
2022/01/25 12:40:25;;;;;;;68.57;26.10;;;4.70;99.90;;;;;;5012190;28;20182;-58
2022/01/25 12:42:55;;;;;;;71.67;27.50;;;4.60;99.90;;;;;;5029298;28;20265;-59
2022/01/25 12:45:23;;;;;;;66.50;27.10;;;4.60;99.90;;;;;;5028528;28;20174;-58
2022/01/25 12:48:09;;;;;;;67.90;27.83;;;4.50;99.90;;;;;;5030111;28;20209;-58
2022/01/25 12:50:37;;;;;;;68.87;26.27;;;4.60;99.90;;;;;;5010522;28;20257;-58
2022/01/25 12:53:06;;;;;;;68.13;27.70;;;4.50;99.90;;;;;;5021897;28;20205;-59
2022/01/25 12:55:36;;;;;;;69.70;26.83;;;4.50;99.90;;;;;;5029591;28;20265;-57
2022/01/25 12:58:05;;;;;;;64.37;26.07;;;4.60;99.90;;;;;;5030024;28;20174;-57
2022/01/25 13:00:39;;;;;;;74.00;27.73;;;4.60;99.90;;;;;;5028978;28;20267;-56
2022/01/25 13:03:11;;;;;;;80.10;27.73;;;4.60;99.90;;;;;;5029838;28;20268;-57
2022/01/25 13:05:42;;;;;;;70.80;24.70;;;4.70;99.90;;;;;;5030141;28;20641;-56
2022/01/25 13:08:30;;;;;;;71.03;26.83;;;4.70;99.90;;;;;;5029868;28;20170;-56
2022/01/25 13:11:21;;;;;;;63.37;25.50;;;4.70;99.90;;;;;;5019346;28;20250;-56
2022/01/25 13:17:12;;;;;;;78.80;27.07;;;4.70;99.90;;;;;;4981780;28;20214;-56
2022/01/25 13:19:47;;;;;;;70.47;27.50;;;4.70;99.90;;;;;;5025711;28;20181;-57
2022/01/25 13:22:19;;;;;;;81.40;26.90;;;4.90;99.90;;;;;;5033071;28;20174;-56
2022/01/25 13:24:59;;;;;;;62.73;25.87;;;4.80;99.90;;;;;;5021075;28;20181;-56
2022/01/25 13:27:30;;;;;;;71.97;26.20;;;4.80;99.90;;;;;;5033825;28;20177;-58
2022/01/25 13:32:50;;;;;;;73.37;26.03;;;4.80;99.90;;;;;;5032657;28;20189;-57
2022/01/25 13:35:20;;;;;;;70.37;27.90;;;4.80;99.90;;;;;;5032632;28;20196;-57
2022/01/25 13:38:00;;;;;;;67.77;27.00;;;4.80;99.90;;;;;;5032701;28;20222;-57
2022/01/25 13:40:33;;;;;;;76.33;28.40;;;4.70;99.90;;;;;;5033318;28;20216;-57
2022/01/25 13:43:30;;;;;;;74.73;28.00;;;4.70;99.90;;;;;;5014722;28;20575;-57
2022/01/25 13:46:06;;;;;;;71.33;26.77;;;4.70;99.90;;;;;;5032248;28;20181;-58
2022/01/25 13:48:33;;;;;;;76.50;26.00;;;4.60;99.90;;;;;;5030224;28;20185;-56
2022/01/25 13:51:19;;;;;;;74.00;27.30;;;4.60;99.90;;;;;;5037828;28;20197;-56
2022/01/25 13:53:54;;;;;;;78.83;27.27;;;4.60;99.90;;;;;;5030455;28;20162;-56
2022/01/25 13:56:23;;;;;;;70.70;26.47;;;4.70;99.90;;;;;;5032624;28;20201;-56
2022/01/25 13:58:50;;;;;;;72.53;26.27;;;4.80;99.90;;;;;;5033090;28;20162;-56
2022/01/25 14:01:18;;;;;;;82.07;28.63;;;4.90;99.90;;;;;;5032779;28;20178;-59
2022/01/25 14:04:02;;;;;;;79.27;28.60;;;4.90;99.90;;;;;;5027251;28;20184;-62
2022/01/25 14:06:41;;;;;;;71.67;27.33;;;5.00;99.90;;;;;;5029652;28;20165;-65
2022/01/25 14:09:13;;;;;;;80.20;28.97;;;4.90;99.90;;;;;;5032773;28;20177;-65
2022/01/25 14:25:34;;;;;;;74.90;25.53;;;4.70;99.90;;;;;;5025888;28;20236;-66
2022/01/25 14:28:04;;;;;;;71.53;27.50;;;4.80;99.90;;;;;;5023602;28;20169;-66
2022/01/25 14:30:36;;;;;;;71.47;27.03;;;4.80;99.90;;;;;;5031477;28;20702;-67
2022/01/25 14:33:11;;;;;;;76.83;27.07;;;4.70;99.90;;;;;;5005838;28;20227;-67
2022/01/25 14:35:47;;;;;;;77.00;27.73;;;4.70;99.90;;;;;;5032323;28;20177;-66
2022/01/25 14:38:21;;;;;;;75.97;27.23;;;4.70;99.90;;;;;;5042074;28;20674;-66
2022/01/25 14:41:29;;;;;;;79.53;28.77;;;4.70;99.90;;;;;;5043532;28;20193;-66
2022/01/25 14:44:01;;;;;;;71.23;25.73;;;4.70;99.90;;;;;;5031680;28;20636;-67